sensor_id;sensor_type;location;lat;lon;timestamp;P1;durP1;ratioP1;P2;durP2;ratioP2
78589;SDS011;67888;50.228;7.828;2024-02-15T00:04:28;10.27;;;5.87;;
78589;SDS011;67888;50.228;7.828;2024-02-15T00:09:29;16.10;;;6.43;;
78589;SDS011;67888;50.228;7.828;2024-02-15T00:14:29;17.10;;;8.57;;
78589;SDS011;67888;50.228;7.828;2024-02-15T00:19:31;20.75;;;10.68;;
78589;SDS011;67888;50.228;7.828;2024-02-15T00:24:32;16.27;;;6.63;;
78589;SDS011;67888;50.228;7.828;2024-02-15T00:29:33;23.20;;;9.23;;
78589;SDS011;67888;50.228;7.828;2024-02-15T00:34:34;17.80;;;7.10;;
78589;SDS011;67888;50.228;7.828;2024-02-15T00:39:34;12.20;;;4.70;;
78589;SDS011;67888;50.228;7.828;2024-02-15T00:44:35;8.50;;;3.03;;
78589;SDS011;67888;50.228;7.828;2024-02-15T00:49:35;9.37;;;3.07;;
78589;SDS011;67888;50.228;7.828;2024-02-15T00:54:36;9.60;;;3.23;;
78589;SDS011;67888;50.228;7.828;2024-02-15T00:59:36;9.73;;;3.27;;
78589;SDS011;67888;50.228;7.828;2024-02-15T01:04:37;7.85;;;3.45;;
78589;SDS011;67888;50.228;7.828;2024-02-15T01:09:37;8.80;;;2.73;;
78589;SDS011;67888;50.228;7.828;2024-02-15T01:14:38;7.87;;;3.00;;
78589;SDS011;67888;50.228;7.828;2024-02-15T01:19:38;8.87;;;3.00;;
78589;SDS011;67888;50.228;7.828;2024-02-15T01:24:39;6.33;;;2.47;;
78589;SDS011;67888;50.228;7.828;2024-02-15T01:29:39;10.97;;;2.87;;
78589;SDS011;67888;50.228;7.828;2024-02-15T01:34:40;7.88;;;2.70;;
78589;SDS011;67888;50.228;7.828;2024-02-15T01:39:42;9.63;;;2.97;;
78589;SDS011;67888;50.228;7.828;2024-02-15T01:44:42;8.73;;;2.97;;
78589;SDS011;67888;50.228;7.828;2024-02-15T01:49:47;8.07;;;2.90;;
78589;SDS011;67888;50.228;7.828;2024-02-15T01:54:50;9.05;;;3.28;;
78589;SDS011;67888;50.228;7.828;2024-02-15T01:59:52;8.50;;;3.45;;
78589;SDS011;67888;50.228;7.828;2024-02-15T02:04:53;11.00;;;3.90;;
78589;SDS011;67888;50.228;7.828;2024-02-15T02:09:54;10.30;;;3.50;;
78589;SDS011;67888;50.228;7.828;2024-02-15T02:14:54;10.60;;;3.95;;
78589;SDS011;67888;50.228;7.828;2024-02-15T02:19:55;9.50;;;3.60;;
78589;SDS011;67888;50.228;7.828;2024-02-15T02:25:01;11.23;;;3.27;;
78589;SDS011;67888;50.228;7.828;2024-02-15T02:30:12;6.60;;;3.25;;
78589;SDS011;67888;50.228;7.828;2024-02-15T02:35:22;11.38;;;3.20;;
78589;SDS011;67888;50.228;7.828;2024-02-15T02:40:23;9.47;;;3.47;;
78589;SDS011;67888;50.228;7.828;2024-02-15T02:45:23;9.37;;;3.13;;
78589;SDS011;67888;50.228;7.828;2024-02-15T02:50:24;8.73;;;3.03;;
78589;SDS011;67888;50.228;7.828;2024-02-15T02:55:24;8.63;;;4.17;;
78589;SDS011;67888;50.228;7.828;2024-02-15T03:00:27;7.97;;;3.15;;
78589;SDS011;67888;50.228;7.828;2024-02-15T03:05:27;7.83;;;2.93;;
78589;SDS011;67888;50.228;7.828;2024-02-15T03:10:29;8.88;;;3.55;;
78589;SDS011;67888;50.228;7.828;2024-02-15T03:15:29;7.83;;;3.33;;
78589;SDS011;67888;50.228;7.828;2024-02-15T03:20:30;8.27;;;3.20;;
78589;SDS011;67888;50.228;7.828;2024-02-15T03:25:30;8.37;;;3.00;;
78589;SDS011;67888;50.228;7.828;2024-02-15T03:30:31;8.93;;;2.97;;
78589;SDS011;67888;50.228;7.828;2024-02-15T03:35:34;7.55;;;2.97;;
78589;SDS011;67888;50.228;7.828;2024-02-15T03:40:34;9.43;;;3.27;;
78589;SDS011;67888;50.228;7.828;2024-02-15T03:45:35;8.15;;;3.20;;
78589;SDS011;67888;50.228;7.828;2024-02-15T03:50:35;8.20;;;3.60;;
78589;SDS011;67888;50.228;7.828;2024-02-15T03:55:36;10.80;;;3.83;;
78589;SDS011;67888;50.228;7.828;2024-02-15T04:00:36;8.73;;;3.37;;
78589;SDS011;67888;50.228;7.828;2024-02-15T04:05:39;9.10;;;3.80;;
78589;SDS011;67888;50.228;7.828;2024-02-15T04:10:39;8.77;;;3.00;;
78589;SDS011;67888;50.228;7.828;2024-02-15T04:15:40;8.23;;;2.77;;
78589;SDS011;67888;50.228;7.828;2024-02-15T04:20:43;7.95;;;2.72;;
78589;SDS011;67888;50.228;7.828;2024-02-15T04:25:45;7.13;;;2.57;;
78589;SDS011;67888;50.228;7.828;2024-02-15T04:30:51;8.10;;;2.78;;
78589;SDS011;67888;50.228;7.828;2024-02-15T04:35:51;12.80;;;3.03;;
78589;SDS011;67888;50.228;7.828;2024-02-15T04:40:52;8.03;;;2.97;;
78589;SDS011;67888;50.228;7.828;2024-02-15T04:45:53;10.77;;;3.03;;
78589;SDS011;67888;50.228;7.828;2024-02-15T04:50:54;8.37;;;3.17;;
78589;SDS011;67888;50.228;7.828;2024-02-15T04:55:55;12.77;;;3.10;;
78589;SDS011;67888;50.228;7.828;2024-02-15T05:00:55;9.05;;;2.53;;
78589;SDS011;67888;50.228;7.828;2024-02-15T05:05:59;9.30;;;3.43;;
78589;SDS011;67888;50.228;7.828;2024-02-15T05:11:00;10.45;;;2.90;;
78589;SDS011;67888;50.228;7.828;2024-02-15T05:16:00;8.07;;;2.70;;
78589;SDS011;67888;50.228;7.828;2024-02-15T05:21:01;11.00;;;3.17;;
78589;SDS011;67888;50.228;7.828;2024-02-15T05:26:03;7.82;;;2.78;;
78589;SDS011;67888;50.228;7.828;2024-02-15T05:31:13;8.53;;;2.80;;
78589;SDS011;67888;50.228;7.828;2024-02-15T05:36:20;7.87;;;2.57;;
78589;SDS011;67888;50.228;7.828;2024-02-15T05:41:21;10.60;;;2.87;;
78589;SDS011;67888;50.228;7.828;2024-02-15T05:46:22;8.33;;;2.90;;
78589;SDS011;67888;50.228;7.828;2024-02-15T05:51:23;9.90;;;3.70;;
78589;SDS011;67888;50.228;7.828;2024-02-15T05:56:23;10.00;;;3.40;;
78589;SDS011;67888;50.228;7.828;2024-02-15T06:01:24;8.17;;;3.30;;
78589;SDS011;67888;50.228;7.828;2024-02-15T06:06:24;10.53;;;3.17;;
78589;SDS011;67888;50.228;7.828;2024-02-15T06:11:26;9.05;;;3.00;;
78589;SDS011;67888;50.228;7.828;2024-02-15T06:16:27;7.47;;;3.10;;
78589;SDS011;67888;50.228;7.828;2024-02-15T06:21:27;10.07;;;3.13;;
78589;SDS011;67888;50.228;7.828;2024-02-15T06:26:28;17.67;;;4.25;;
78589;SDS011;67888;50.228;7.828;2024-02-15T06:31:28;12.50;;;3.40;;
78589;SDS011;67888;50.228;7.828;2024-02-15T06:36:48;8.20;;;2.50;;
78589;SDS011;67888;50.228;7.828;2024-02-15T06:42:12;8.63;;;2.90;;
78589;SDS011;67888;50.228;7.828;2024-02-15T06:47:18;13.55;;;4.32;;
78589;SDS011;67888;50.228;7.828;2024-02-15T06:52:19;10.77;;;3.67;;
78589;SDS011;67888;50.228;7.828;2024-02-15T06:57:20;13.65;;;4.55;;
78589;SDS011;67888;50.228;7.828;2024-02-15T07:02:20;13.00;;;4.83;;
78589;SDS011;67888;50.228;7.828;2024-02-15T07:07:22;11.05;;;3.67;;
78589;SDS011;67888;50.228;7.828;2024-02-15T07:12:23;8.27;;;2.10;;
78589;SDS011;67888;50.228;7.828;2024-02-15T07:17:23;6.47;;;2.30;;
78589;SDS011;67888;50.228;7.828;2024-02-15T07:22:24;10.03;;;2.90;;
78589;SDS011;67888;50.228;7.828;2024-02-15T07:27:24;9.03;;;4.40;;
78589;SDS011;67888;50.228;7.828;2024-02-15T07:32:26;13.73;;;6.07;;
78589;SDS011;67888;50.228;7.828;2024-02-15T07:37:27;17.63;;;6.87;;
78589;SDS011;67888;50.228;7.828;2024-02-15T07:42:29;10.20;;;4.60;;
78589;SDS011;67888;50.228;7.828;2024-02-15T07:47:30;12.83;;;7.47;;
78589;SDS011;67888;50.228;7.828;2024-02-15T07:52:30;12.83;;;7.60;;
78589;SDS011;67888;50.228;7.828;2024-02-15T07:57:31;14.77;;;7.20;;
78589;SDS011;67888;50.228;7.828;2024-02-15T08:02:31;11.90;;;3.83;;
78589;SDS011;67888;50.228;7.828;2024-02-15T08:07:32;15.33;;;7.70;;
78589;SDS011;67888;50.228;7.828;2024-02-15T08:12:35;11.02;;;5.20;;
78589;SDS011;67888;50.228;7.828;2024-02-15T08:17:36;11.73;;;4.67;;
78589;SDS011;67888;50.228;7.828;2024-02-15T08:22:37;9.48;;;4.30;;
78589;SDS011;67888;50.228;7.828;2024-02-15T08:27:42;10.90;;;4.70;;
78589;SDS011;67888;50.228;7.828;2024-02-15T08:32:44;11.27;;;4.80;;
78589;SDS011;67888;50.228;7.828;2024-02-15T08:37:45;11.50;;;5.15;;
78589;SDS011;67888;50.228;7.828;2024-02-15T08:42:47;15.88;;;7.15;;
78589;SDS011;67888;50.228;7.828;2024-02-15T08:47:47;10.93;;;6.33;;
78589;SDS011;67888;50.228;7.828;2024-02-15T08:52:50;11.43;;;6.10;;
78589;SDS011;67888;50.228;7.828;2024-02-15T08:57:50;12.40;;;6.50;;
78589;SDS011;67888;50.228;7.828;2024-02-15T09:02:51;13.87;;;6.03;;
78589;SDS011;67888;50.228;7.828;2024-02-15T09:07:53;13.50;;;6.50;;
78589;SDS011;67888;50.228;7.828;2024-02-15T09:12:54;11.07;;;5.23;;
78589;SDS011;67888;50.228;7.828;2024-02-15T09:17:54;11.00;;;5.07;;
78589;SDS011;67888;50.228;7.828;2024-02-15T09:22:55;13.90;;;5.00;;
78589;SDS011;67888;50.228;7.828;2024-02-15T09:27:56;20.57;;;8.20;;
78589;SDS011;67888;50.228;7.828;2024-02-15T09:32:57;14.53;;;5.23;;
78589;SDS011;67888;50.228;7.828;2024-02-15T09:37:57;14.88;;;5.75;;
78589;SDS011;67888;50.228;7.828;2024-02-15T09:42:58;18.70;;;6.20;;
78589;SDS011;67888;50.228;7.828;2024-02-15T09:48:00;12.57;;;4.40;;
78589;SDS011;67888;50.228;7.828;2024-02-15T09:53:05;8.80;;;3.57;;
78589;SDS011;67888;50.228;7.828;2024-02-15T09:58:07;8.52;;;2.90;;
78589;SDS011;67888;50.228;7.828;2024-02-15T10:03:09;6.88;;;2.60;;
78589;SDS011;67888;50.228;7.828;2024-02-15T10:08:16;7.30;;;2.83;;
78589;SDS011;67888;50.228;7.828;2024-02-15T10:13:18;6.72;;;2.25;;
78589;SDS011;67888;50.228;7.828;2024-02-15T10:18:23;8.45;;;2.50;;
78589;SDS011;67888;50.228;7.828;2024-02-15T10:23:24;8.63;;;3.07;;
78589;SDS011;67888;50.228;7.828;2024-02-15T10:28:24;6.37;;;2.50;;
78589;SDS011;67888;50.228;7.828;2024-02-15T10:33:26;8.82;;;3.63;;
78589;SDS011;67888;50.228;7.828;2024-02-15T10:38:30;8.90;;;2.80;;
78589;SDS011;67888;50.228;7.828;2024-02-15T10:43:34;6.65;;;2.22;;
78589;SDS011;67888;50.228;7.828;2024-02-15T10:48:37;7.68;;;2.42;;
78589;SDS011;67888;50.228;7.828;2024-02-15T10:53:39;8.37;;;2.50;;
78589;SDS011;67888;50.228;7.828;2024-02-15T10:58:50;6.75;;;2.40;;
78589;SDS011;67888;50.228;7.828;2024-02-15T11:04:11;6.77;;;2.60;;
78589;SDS011;67888;50.228;7.828;2024-02-15T11:09:14;5.85;;;1.85;;
78589;SDS011;67888;50.228;7.828;2024-02-15T11:14:28;6.78;;;2.00;;
78589;SDS011;67888;50.228;7.828;2024-02-15T11:24:48;7.40;;;2.08;;
78589;SDS011;67888;50.228;7.828;2024-02-15T11:29:58;12.15;;;3.08;;
78589;SDS011;67888;50.228;7.828;2024-02-15T11:40:17;6.28;;;1.77;;
78589;SDS011;67888;50.228;7.828;2024-02-15T11:45:19;6.63;;;2.05;;
78589;SDS011;67888;50.228;7.828;2024-02-15T11:50:20;9.23;;;2.60;;
78589;SDS011;67888;50.228;7.828;2024-02-15T11:55:22;8.48;;;1.80;;
78589;SDS011;67888;50.228;7.828;2024-02-15T12:00:23;6.30;;;1.90;;
78589;SDS011;67888;50.228;7.828;2024-02-15T12:05:42;7.63;;;1.85;;
78589;SDS011;67888;50.228;7.828;2024-02-15T12:11:01;6.10;;;1.77;;
78589;SDS011;67888;50.228;7.828;2024-02-15T12:16:20;6.80;;;2.17;;
78589;SDS011;67888;50.228;7.828;2024-02-15T12:21:39;6.32;;;2.28;;
78589;SDS011;67888;50.228;7.828;2024-02-15T12:26:41;6.57;;;1.85;;
78589;SDS011;67888;50.228;7.828;2024-02-15T12:31:42;6.43;;;1.70;;
78589;SDS011;67888;50.228;7.828;2024-02-15T12:36:44;7.93;;;1.88;;
78589;SDS011;67888;50.228;7.828;2024-02-15T12:41:49;7.37;;;2.30;;
78589;SDS011;67888;50.228;7.828;2024-02-15T12:46:55;7.13;;;2.60;;
78589;SDS011;67888;50.228;7.828;2024-02-15T12:57:35;9.13;;;3.37;;
78589;SDS011;67888;50.228;7.828;2024-02-15T13:02:37;11.20;;;3.70;;
78589;SDS011;67888;50.228;7.828;2024-02-15T13:07:38;9.27;;;2.50;;
78589;SDS011;67888;50.228;7.828;2024-02-15T13:12:38;7.73;;;2.20;;
78589;SDS011;67888;50.228;7.828;2024-02-15T13:17:39;8.63;;;2.30;;
78589;SDS011;67888;50.228;7.828;2024-02-15T13:22:40;6.40;;;2.27;;
78589;SDS011;67888;50.228;7.828;2024-02-15T13:27:43;8.07;;;3.33;;
78589;SDS011;67888;50.228;7.828;2024-02-15T13:32:43;9.37;;;3.80;;
78589;SDS011;67888;50.228;7.828;2024-02-15T13:37:47;10.97;;;3.67;;
78589;SDS011;67888;50.228;7.828;2024-02-15T13:42:48;9.48;;;4.57;;
78589;SDS011;67888;50.228;7.828;2024-02-15T13:47:53;14.43;;;8.02;;
78589;SDS011;67888;50.228;7.828;2024-02-15T13:52:54;9.90;;;3.87;;
78589;SDS011;67888;50.228;7.828;2024-02-15T13:57:54;12.27;;;7.05;;
78589;SDS011;67888;50.228;7.828;2024-02-15T14:02:57;14.37;;;7.73;;
78589;SDS011;67888;50.228;7.828;2024-02-15T14:07:59;14.32;;;6.82;;
78589;SDS011;67888;50.228;7.828;2024-02-15T14:13:01;18.83;;;9.13;;
78589;SDS011;67888;50.228;7.828;2024-02-15T14:18:02;14.90;;;8.33;;
78589;SDS011;67888;50.228;7.828;2024-02-15T14:23:05;9.75;;;4.82;;
78589;SDS011;67888;50.228;7.828;2024-02-15T14:28:06;11.37;;;5.43;;
78589;SDS011;67888;50.228;7.828;2024-02-15T14:33:09;12.55;;;4.80;;
78589;SDS011;67888;50.228;7.828;2024-02-15T14:38:12;10.63;;;4.00;;
78589;SDS011;67888;50.228;7.828;2024-02-15T14:43:13;8.50;;;2.63;;
78589;SDS011;67888;50.228;7.828;2024-02-15T14:48:15;6.28;;;2.40;;
78589;SDS011;67888;50.228;7.828;2024-02-15T14:53:17;8.88;;;2.67;;
78589;SDS011;67888;50.228;7.828;2024-02-15T14:58:18;6.50;;;2.50;;
78589;SDS011;67888;50.228;7.828;2024-02-15T15:03:19;6.80;;;2.95;;
78589;SDS011;67888;50.228;7.828;2024-02-15T15:08:20;10.17;;;4.00;;
78589;SDS011;67888;50.228;7.828;2024-02-15T15:13:39;8.63;;;3.40;;
78589;SDS011;67888;50.228;7.828;2024-02-15T15:18:40;12.63;;;6.03;;
78589;SDS011;67888;50.228;7.828;2024-02-15T15:23:44;9.57;;;3.88;;
78589;SDS011;67888;50.228;7.828;2024-02-15T15:28:45;9.73;;;3.80;;
78589;SDS011;67888;50.228;7.828;2024-02-15T15:33:46;6.37;;;2.10;;
78589;SDS011;67888;50.228;7.828;2024-02-15T15:38:48;7.93;;;2.17;;
78589;SDS011;67888;50.228;7.828;2024-02-15T15:43:48;22.43;;;5.77;;
78589;SDS011;67888;50.228;7.828;2024-02-15T15:48:50;12.27;;;4.65;;
78589;SDS011;67888;50.228;7.828;2024-02-15T15:53:50;11.13;;;3.00;;
78589;SDS011;67888;50.228;7.828;2024-02-15T15:58:51;9.23;;;2.80;;
78589;SDS011;67888;50.228;7.828;2024-02-15T16:03:51;7.72;;;2.50;;
78589;SDS011;67888;50.228;7.828;2024-02-15T16:08:53;9.20;;;2.63;;
78589;SDS011;67888;50.228;7.828;2024-02-15T16:13:54;8.23;;;2.60;;
78589;SDS011;67888;50.228;7.828;2024-02-15T16:18:54;7.90;;;2.88;;
78589;SDS011;67888;50.228;7.828;2024-02-15T16:23:55;8.13;;;2.87;;
78589;SDS011;67888;50.228;7.828;2024-02-15T16:28:56;9.03;;;3.23;;
78589;SDS011;67888;50.228;7.828;2024-02-15T16:33:56;9.57;;;2.90;;
78589;SDS011;67888;50.228;7.828;2024-02-15T16:38:56;7.73;;;2.87;;
78589;SDS011;67888;50.228;7.828;2024-02-15T16:43:57;7.30;;;2.73;;
78589;SDS011;67888;50.228;7.828;2024-02-15T16:48:57;7.10;;;2.20;;
78589;SDS011;67888;50.228;7.828;2024-02-15T16:53:58;8.33;;;2.90;;
78589;SDS011;67888;50.228;7.828;2024-02-15T16:58:58;10.43;;;3.97;;
78589;SDS011;67888;50.228;7.828;2024-02-15T17:03:59;8.77;;;3.40;;
78589;SDS011;67888;50.228;7.828;2024-02-15T17:09:00;36.70;;;9.07;;
78589;SDS011;67888;50.228;7.828;2024-02-15T17:14:01;23.53;;;7.27;;
78589;SDS011;67888;50.228;7.828;2024-02-15T17:19:02;21.48;;;11.25;;
78589;SDS011;67888;50.228;7.828;2024-02-15T17:24:03;14.33;;;7.27;;
78589;SDS011;67888;50.228;7.828;2024-02-15T17:29:05;9.05;;;3.65;;
78589;SDS011;67888;50.228;7.828;2024-02-15T17:34:08;15.17;;;9.23;;
78589;SDS011;67888;50.228;7.828;2024-02-15T17:39:12;13.37;;;3.77;;
78589;SDS011;67888;50.228;7.828;2024-02-15T17:44:14;9.48;;;2.33;;
78589;SDS011;67888;50.228;7.828;2024-02-15T17:49:15;5.60;;;1.67;;
78589;SDS011;67888;50.228;7.828;2024-02-15T17:54:15;7.90;;;3.03;;
78589;SDS011;67888;50.228;7.828;2024-02-15T17:59:16;7.77;;;2.50;;
78589;SDS011;67888;50.228;7.828;2024-02-15T18:04:16;9.53;;;2.47;;
78589;SDS011;67888;50.228;7.828;2024-02-15T18:09:17;7.80;;;1.90;;
78589;SDS011;67888;50.228;7.828;2024-02-15T18:14:17;6.53;;;1.90;;
78589;SDS011;67888;50.228;7.828;2024-02-15T18:19:17;10.43;;;3.47;;
78589;SDS011;67888;50.228;7.828;2024-02-15T18:24:19;6.60;;;2.40;;
78589;SDS011;67888;50.228;7.828;2024-02-15T18:29:21;19.73;;;9.67;;
78589;SDS011;67888;50.228;7.828;2024-02-15T18:34:21;21.00;;;11.07;;
78589;SDS011;67888;50.228;7.828;2024-02-15T18:39:22;22.77;;;10.20;;
78589;SDS011;67888;50.228;7.828;2024-02-15T18:44:25;25.10;;;12.70;;
78589;SDS011;67888;50.228;7.828;2024-02-15T18:49:25;27.57;;;12.70;;
78589;SDS011;67888;50.228;7.828;2024-02-15T18:54:26;20.37;;;9.50;;
78589;SDS011;67888;50.228;7.828;2024-02-15T18:59:27;16.03;;;6.87;;
78589;SDS011;67888;50.228;7.828;2024-02-15T19:04:29;15.60;;;7.90;;
78589;SDS011;67888;50.228;7.828;2024-02-15T19:09:30;13.95;;;6.30;;
78589;SDS011;67888;50.228;7.828;2024-02-15T19:14:31;18.30;;;8.67;;
78589;SDS011;67888;50.228;7.828;2024-02-15T19:19:32;15.37;;;8.17;;
78589;SDS011;67888;50.228;7.828;2024-02-15T19:24:33;7.40;;;2.25;;
78589;SDS011;67888;50.228;7.828;2024-02-15T19:29:34;46.92;;;31.17;;
78589;SDS011;67888;50.228;7.828;2024-02-15T19:34:36;41.70;;;24.57;;
78589;SDS011;67888;50.228;7.828;2024-02-15T19:39:36;35.35;;;21.13;;
78589;SDS011;67888;50.228;7.828;2024-02-15T19:44:39;54.47;;;32.83;;
78589;SDS011;67888;50.228;7.828;2024-02-15T19:49:41;25.65;;;14.35;;
78589;SDS011;67888;50.228;7.828;2024-02-15T19:54:41;26.63;;;14.77;;
78589;SDS011;67888;50.228;7.828;2024-02-15T19:59:42;12.10;;;4.77;;
78589;SDS011;67888;50.228;7.828;2024-02-15T20:04:43;6.17;;;2.50;;
78589;SDS011;67888;50.228;7.828;2024-02-15T20:09:44;7.57;;;2.50;;
78589;SDS011;67888;50.228;7.828;2024-02-15T20:14:47;9.13;;;2.67;;
78589;SDS011;67888;50.228;7.828;2024-02-15T20:19:48;5.50;;;1.70;;
78589;SDS011;67888;50.228;7.828;2024-02-15T20:31:07;6.03;;;1.57;;
78589;SDS011;67888;50.228;7.828;2024-02-15T20:36:08;5.90;;;1.60;;
78589;SDS011;67888;50.228;7.828;2024-02-15T20:41:08;5.30;;;1.73;;
78589;SDS011;67888;50.228;7.828;2024-02-15T20:46:12;6.60;;;1.88;;
78589;SDS011;67888;50.228;7.828;2024-02-15T20:51:14;5.97;;;1.80;;
78589;SDS011;67888;50.228;7.828;2024-02-15T20:56:14;5.90;;;1.80;;
78589;SDS011;67888;50.228;7.828;2024-02-15T21:01:16;6.83;;;2.33;;
78589;SDS011;67888;50.228;7.828;2024-02-15T21:06:21;6.95;;;2.30;;
78589;SDS011;67888;50.228;7.828;2024-02-15T21:11:22;7.28;;;2.58;;
78589;SDS011;67888;50.228;7.828;2024-02-15T21:16:24;8.00;;;3.33;;
78589;SDS011;67888;50.228;7.828;2024-02-15T21:21:25;6.63;;;2.00;;
78589;SDS011;67888;50.228;7.828;2024-02-15T21:26:26;7.43;;;2.17;;
78589;SDS011;67888;50.228;7.828;2024-02-15T21:31:27;8.27;;;1.90;;
78589;SDS011;67888;50.228;7.828;2024-02-15T21:36:27;7.33;;;2.00;;
78589;SDS011;67888;50.228;7.828;2024-02-15T21:41:28;8.17;;;3.10;;
78589;SDS011;67888;50.228;7.828;2024-02-15T21:46:28;7.87;;;3.43;;
78589;SDS011;67888;50.228;7.828;2024-02-15T21:51:28;9.17;;;3.30;;
78589;SDS011;67888;50.228;7.828;2024-02-15T21:56:29;13.27;;;6.10;;
78589;SDS011;67888;50.228;7.828;2024-02-15T22:01:29;13.57;;;7.03;;
78589;SDS011;67888;50.228;7.828;2024-02-15T22:06:31;11.10;;;4.83;;
78589;SDS011;67888;50.228;7.828;2024-02-15T22:11:31;7.23;;;3.20;;
78589;SDS011;67888;50.228;7.828;2024-02-15T22:16:34;9.05;;;3.10;;
78589;SDS011;67888;50.228;7.828;2024-02-15T22:21:35;18.57;;;6.43;;
78589;SDS011;67888;50.228;7.828;2024-02-15T22:26:35;28.42;;;10.32;;
78589;SDS011;67888;50.228;7.828;2024-02-15T22:31:36;11.13;;;3.83;;
78589;SDS011;67888;50.228;7.828;2024-02-15T22:36:36;9.27;;;3.20;;
78589;SDS011;67888;50.228;7.828;2024-02-15T22:41:37;6.67;;;2.40;;
78589;SDS011;67888;50.228;7.828;2024-02-15T22:46:44;6.80;;;2.50;;
78589;SDS011;67888;50.228;7.828;2024-02-15T22:51:48;7.18;;;2.90;;
78589;SDS011;67888;50.228;7.828;2024-02-15T22:56:50;9.25;;;3.00;;
78589;SDS011;67888;50.228;7.828;2024-02-15T23:01:50;7.97;;;2.80;;
78589;SDS011;67888;50.228;7.828;2024-02-15T23:06:51;9.50;;;3.20;;
78589;SDS011;67888;50.228;7.828;2024-02-15T23:11:51;10.23;;;3.90;;
78589;SDS011;67888;50.228;7.828;2024-02-15T23:16:54;13.60;;;5.18;;
78589;SDS011;67888;50.228;7.828;2024-02-15T23:21:55;17.17;;;7.13;;
78589;SDS011;67888;50.228;7.828;2024-02-15T23:26:56;15.47;;;7.17;;
78589;SDS011;67888;50.228;7.828;2024-02-15T23:31:56;18.75;;;9.10;;
78589;SDS011;67888;50.228;7.828;2024-02-15T23:36:57;25.67;;;12.37;;
78589;SDS011;67888;50.228;7.828;2024-02-15T23:42:16;24.25;;;10.85;;
78589;SDS011;67888;50.228;7.828;2024-02-15T23:47:16;59.43;;;28.10;;
78589;SDS011;67888;50.228;7.828;2024-02-15T23:52:17;42.90;;;20.00;;
78589;SDS011;67888;50.228;7.828;2024-02-15T23:57:18;19.38;;;7.88;;
